Storm Lake, IA

10:17 AM CDT on August 30, 2016 (GMT -0500)
IADOT | | Change Station

Elev 1328 ft 42.75 °N, 95.15 °W | Updated 23 minutes ago

Clear
Clear
68.0 °F
Feels Like 68.0 °F
N
7.0
Wind Variable Wind from WSW
Gusts 11.0 mph

Today
High -- | Low -- °F
--% Chance of Precip.
Yesterday
High -- | Low -- °F
Precip. -- in
Pressure 30.20 in
Visibility 10.0 miles
Clouds Clear
Dew Point 66.0 °F
Humidity 93%
Rainfall in
Snow Depth Not available.
6:43 AM 7:57 PM
Waning Crescent, 3% visible
METAR KSLB 301515Z AUTO 24005KT 10SM CLR 20/19 A3020 RMK AO2
Pressure 30.20 in
Visibility 10.0 miles
Clouds Clear
Dew Point 66.0 °F
Humidity 93%
Rainfall in
Snow Depth Not available.
6:43 AM 7:57 PM
Waning Crescent, 3% visible
METAR KSLB 301515Z AUTO 24005KT 10SM CLR 20/19 A3020 RMK AO2

10-Day Weather Forecast

Almanac

Astronomy

Aug. 30, 2016 Rise Set
Actual Time
Civil Twilight
Nautical Twilight
Astronomical Twilight
Moon
Length of Visible Light
Length of Day
Tomorrow will be .
, % of the Moon is Illuminated

Today's Extremes

State Highs State Lows

Community

WunderPhotos

Upload Photos

1,935,855 photos uploaded!

WunderBlog® & News

Nearby

Air Quality

  Air Quality AQ Index Pollutant
Not available.

Snow Depth

Station Depth Elevation

Earthquake Activity

City Distance Mag. Time & Date
Minimum magnitude displayed is 2.5.

Coastal Water Temperatures

Place Temperature

Stations

Nearby Weather Stations

Station Location Temp. Windchill Dew Point Humidity Wind Precip. Elev Updated Type
                   

Watches & Warnings

There are currently no watches in effect.